createdAt,value
2022-08-22T03:50:13.186Z,12
2022-08-22T03:51:13.170Z,12
2022-08-22T03:52:12.907Z,16
2022-08-22T03:53:23.840Z,20
2022-08-22T03:54:13.371Z,20
2022-08-22T03:55:13.114Z,28
2022-08-22T03:56:13.090Z,32
2022-08-22T03:57:13.091Z,36
2022-08-22T03:58:32.414Z,40
2022-08-22T03:59:17.177Z,44
2022-08-22T04:00:13.039Z,52
2022-08-22T04:01:13.204Z,56
2022-08-22T04:02:49.880Z,64
2022-08-22T04:03:13.010Z,68
2022-08-22T04:04:12.992Z,76
2022-08-22T04:05:17.680Z,84
2022-08-22T04:06:20.556Z,92
2022-08-22T04:07:37.380Z,104
2022-08-22T04:08:17.669Z,108
2022-08-22T04:09:12.688Z,120
2022-08-22T04:10:12.439Z,128
2022-08-22T04:11:12.659Z,136
2022-08-22T04:12:13.657Z,148
2022-08-22T04:13:12.909Z,160
2022-08-22T04:14:12.876Z,172
2022-08-22T04:15:12.877Z,184
2022-08-22T04:16:12.611Z,196
2022-08-22T04:17:13.110Z,212
2022-08-22T04:18:15.651Z,232
2022-08-22T04:19:15.359Z,248
2022-08-22T04:20:12.567Z,268
2022-08-22T04:21:12.306Z,292
2022-08-22T04:22:13.048Z,316
2022-08-22T04:23:12.533Z,336
2022-08-22T04:24:12.508Z,356
2022-08-22T04:25:15.064Z,368
2022-08-22T04:26:19.194Z,388
2022-08-22T04:27:12.478Z,400
2022-08-22T04:28:12.468Z,420
2022-08-22T04:29:12.716Z,440
2022-08-22T04:30:12.454Z,460
2022-08-22T04:31:12.703Z,480
2022-08-22T04:32:16.952Z,504
2022-08-22T04:33:12.682Z,524
2022-08-22T04:34:12.652Z,548
2022-08-22T04:35:12.469Z,568
2022-08-22T04:36:12.637Z,588
2022-08-22T04:37:12.629Z,600
2022-08-22T04:38:13.549Z,620
2022-08-22T04:39:12.352Z,636
2022-08-22T04:40:12.677Z,656
2022-08-22T04:41:12.831Z,680
2022-08-22T04:42:38.515Z,712
2022-08-22T04:43:12.303Z,724
2022-08-22T04:44:15.502Z,748
2022-08-22T04:45:13.199Z,768
2022-08-22T04:46:12.775Z,796
2022-08-22T04:47:12.509Z,816
2022-08-22T04:48:12.250Z,844
2022-08-22T04:49:12.233Z,876
2022-08-22T04:50:12.252Z,908
2022-08-22T04:51:12.310Z,924
2022-08-22T04:52:12.711Z,944
2022-08-22T04:53:12.440Z,968
2022-08-22T04:54:12.266Z,984
2022-08-22T04:55:12.428Z,1008
2022-08-22T04:56:14.709Z,1020
2022-08-22T04:57:12.142Z,1032
2022-08-22T04:58:13.230Z,1044
2022-08-22T04:59:12.699Z,1060
2022-08-22T05:00:12.118Z,1080
2022-08-22T05:01:12.351Z,1112
2022-08-22T05:02:12.076Z,1128
2022-08-22T05:03:12.081Z,1156
2022-08-22T05:04:12.578Z,1180
2022-08-22T05:05:20.220Z,1212
2022-08-22T05:06:12.559Z,1240
2022-08-22T05:07:12.292Z,1272
2022-08-22T05:08:16.234Z,1304
2022-08-22T05:09:18.306Z,1336
2022-08-22T05:10:18.973Z,1368
2022-08-22T05:11:11.997Z,1392
2022-08-22T05:12:12.490Z,1416
2022-08-22T05:13:12.485Z,1432
2022-08-22T05:14:12.213Z,1444
2022-08-22T05:15:14.857Z,1452
2022-08-22T05:16:11.969Z,1480
2022-08-22T05:17:12.936Z,1512
2022-08-22T05:18:12.458Z,1552
2022-08-22T05:19:23.126Z,1592
2022-08-22T05:20:12.168Z,1624
2022-08-22T05:21:18.644Z,1676
2022-08-22T05:22:12.134Z,1716
2022-08-22T05:23:21.932Z,1780
2022-08-22T05:24:11.861Z,1824
2022-08-22T05:25:11.840Z,1848
2022-08-22T05:26:12.981Z,1872
2022-08-22T05:27:12.079Z,1900
2022-08-22T05:28:12.109Z,1928
2022-08-22T05:29:12.063Z,1952
2022-08-22T05:30:13.160Z,2016
2022-08-22T05:31:12.033Z,2080
2022-08-22T05:32:12.280Z,2152
2022-08-22T05:33:11.759Z,2208
2022-08-22T05:34:12.255Z,2240
2022-08-22T05:35:11.748Z,2248
2022-08-22T05:36:11.731Z,2256
2022-08-22T05:37:15.220Z,2240
2022-08-22T05:38:11.709Z,2236
2022-08-22T05:39:11.444Z,2252
2022-08-22T05:40:12.053Z,2280
2022-08-22T05:41:11.720Z,2320
2022-08-22T05:42:11.680Z,2324
2022-08-22T05:43:11.930Z,2340
2022-08-22T05:44:11.903Z,2388
2022-08-22T05:45:16.899Z,2468
2022-08-22T05:46:11.886Z,2572
2022-08-22T05:47:11.646Z,2680
2022-08-22T05:48:11.867Z,2792
2022-08-22T05:49:11.601Z,2852
2022-08-22T05:50:11.842Z,3028
2022-08-22T05:51:12.281Z,3152
2022-08-22T05:52:13.601Z,3264
2022-08-22T05:53:12.415Z,3312
2022-08-22T05:54:11.798Z,3412
2022-08-22T05:55:11.550Z,3568
2022-08-22T05:56:11.789Z,3720
2022-08-22T05:57:14.838Z,3844
2022-08-22T05:58:11.770Z,3948
2022-08-22T05:59:15.527Z,4092
2022-08-22T06:00:11.911Z,4224
2022-08-22T06:01:11.758Z,4364
2022-08-22T06:02:12.093Z,4472
2022-08-22T06:03:11.471Z,4560
2022-08-22T06:04:11.777Z,4656
2022-08-22T06:05:16.896Z,4740
2022-08-22T06:06:11.458Z,4792
2022-08-22T06:07:11.168Z,4892
2022-08-22T06:08:11.418Z,4972
2022-08-22T06:09:11.171Z,5012
2022-08-22T06:10:11.401Z,5068
2022-08-22T06:11:11.409Z,5100
2022-08-22T06:12:22.069Z,5144
2022-08-22T06:13:24.794Z,5164
2022-08-22T06:14:15.310Z,5200
2022-08-22T06:15:23.332Z,5212
2022-08-22T06:16:14.318Z,5236
2022-08-22T06:17:11.584Z,5224
2022-08-22T06:18:11.334Z,5156
2022-08-22T06:19:26.505Z,5248
2022-08-22T06:20:11.552Z,5292
2022-08-22T06:21:11.818Z,5304
2022-08-22T06:22:18.688Z,5332
2022-08-22T06:23:11.785Z,5376
2022-08-22T06:24:11.534Z,5424
2022-08-22T06:25:11.773Z,5548
2022-08-22T06:26:25.701Z,5572
2022-08-22T06:27:10.982Z,5592
2022-08-22T06:28:11.509Z,5624
2022-08-22T06:29:10.971Z,5612
2022-08-22T06:30:11.227Z,5580
2022-08-22T06:31:11.736Z,5560
2022-08-22T06:32:11.452Z,5552
2022-08-22T06:33:17.102Z,5512
2022-08-22T06:34:11.186Z,5500
2022-08-22T06:35:13.278Z,5480
2022-08-22T06:36:11.172Z,5468
2022-08-22T06:37:11.412Z,5468
2022-08-22T06:38:11.412Z,5508
2022-08-22T06:39:11.404Z,5532
2022-08-22T06:40:11.727Z,5656
2022-08-22T06:41:11.659Z,5748
2022-08-22T06:42:16.839Z,5848
2022-08-22T06:43:11.112Z,5812
2022-08-22T06:44:10.857Z,5968
2022-08-22T06:45:11.364Z,6256
2022-08-22T06:46:11.352Z,6836
2022-08-22T06:47:11.089Z,7220
2022-08-22T06:48:12.466Z,7184
2022-08-22T06:49:11.073Z,8760
2022-08-22T06:50:18.112Z,12172
2022-08-22T06:51:11.582Z,13708
2022-08-22T06:52:11.305Z,15068
2022-08-22T06:53:11.293Z,13096
2022-08-22T06:54:11.335Z,14796
2022-08-22T06:55:11.545Z,13616
2022-08-22T06:56:13.511Z,15432
2022-08-22T06:57:11.023Z,16192
2022-08-22T06:58:11.636Z,14948
2022-08-22T06:59:11.280Z,16352
2022-08-22T07:00:11.258Z,18240
2022-08-22T07:01:18.477Z,18080
2022-08-22T07:02:11.297Z,14492
2022-08-22T07:03:11.512Z,14384
2022-08-22T07:04:11.501Z,16064
2022-08-22T07:05:11.237Z,14932
2022-08-22T07:06:11.499Z,15144
2022-08-22T07:07:10.969Z,18816
2022-08-22T07:08:11.224Z,22336
2022-08-22T07:09:13.626Z,22912
2022-08-22T07:10:10.951Z,23872
2022-08-22T07:11:10.965Z,24928
2022-08-22T07:12:11.458Z,22912
2022-08-22T07:13:11.194Z,21600
2022-08-22T07:14:10.938Z,19648
2022-08-22T07:15:11.187Z,19584
2022-08-22T07:16:11.850Z,16064
2022-08-22T07:17:12.100Z,11608
2022-08-22T07:18:11.594Z,9004
2022-08-22T07:19:11.594Z,7928
2022-08-22T07:20:11.843Z,7796
2022-08-22T07:21:13.837Z,7524
2022-08-22T07:22:11.840Z,7448
2022-08-22T07:23:12.096Z,7300
2022-08-22T07:24:12.340Z,7168
2022-08-22T07:25:12.087Z,6988
2022-08-22T07:26:12.079Z,6980
2022-08-22T07:27:12.244Z,6884
2022-08-22T07:28:20.448Z,6876
2022-08-22T07:29:21.311Z,6852
2022-08-22T07:30:15.630Z,6824
2022-08-22T07:31:13.732Z,6772
2022-08-22T07:32:12.344Z,6672
2022-08-22T07:33:33.403Z,6504
2022-08-22T07:34:12.362Z,6452
2022-08-22T07:35:12.329Z,6452
2022-08-22T07:36:12.327Z,6464
2022-08-22T07:37:11.814Z,6444
2022-08-22T07:38:14.018Z,6392
2022-08-22T07:39:17.964Z,6324
2022-08-22T07:40:12.434Z,6300
2022-08-22T07:41:12.055Z,6216
2022-08-22T07:42:12.131Z,6136
2022-08-22T07:43:11.827Z,6068
2022-08-22T07:44:14.648Z,6008
2022-08-22T07:45:12.319Z,5944
2022-08-22T07:46:12.977Z,5848
2022-08-22T07:47:12.041Z,5764
2022-08-22T07:48:11.802Z,5692
2022-08-22T07:49:16.952Z,5600
2022-08-22T07:50:11.783Z,5532
2022-08-22T07:51:12.308Z,5464
2022-08-22T07:52:12.768Z,5408
2022-08-22T07:53:12.310Z,5344
2022-08-22T07:54:11.531Z,5256
2022-08-22T07:55:11.783Z,5140
2022-08-22T07:56:12.277Z,5024
2022-08-22T07:57:12.037Z,4936
2022-08-22T07:58:11.771Z,4928
2022-08-22T07:59:19.110Z,4944
2022-08-22T08:00:11.511Z,4984
2022-08-22T08:01:11.986Z,5004
2022-08-22T08:02:11.760Z,5004
2022-08-22T08:03:12.177Z,5000
2022-08-22T08:04:12.265Z,5012
2022-08-22T08:05:11.754Z,5004
2022-08-22T08:06:11.765Z,5012
2022-08-22T08:07:12.007Z,5076
2022-08-22T08:08:17.706Z,5148
2022-08-22T08:09:11.744Z,5168
2022-08-22T08:10:17.261Z,5144
2022-08-22T08:11:12.004Z,5136
2022-08-22T08:12:12.249Z,5168
2022-08-22T08:13:11.496Z,5216
2022-08-22T08:14:15.966Z,5392
2022-08-22T08:15:11.733Z,5580
2022-08-22T08:16:11.981Z,5736
2022-08-22T08:17:12.238Z,5912
2022-08-22T08:18:12.233Z,6068
2022-08-22T08:19:11.991Z,6212
2022-08-22T08:20:11.720Z,6384
2022-08-22T08:21:11.734Z,6752
2022-08-22T08:22:11.972Z,7004
2022-08-22T08:23:11.970Z,7128
2022-08-22T08:24:12.459Z,7148
2022-08-22T08:25:11.445Z,7404
2022-08-22T08:26:11.971Z,7688
2022-08-22T08:27:11.703Z,7868
2022-08-22T08:28:16.423Z,7892
2022-08-22T08:29:11.700Z,7760
2022-08-22T08:30:17.819Z,7744
2022-08-22T08:31:12.225Z,7728
2022-08-22T08:32:11.439Z,7700
2022-08-22T08:33:32.467Z,7636
2022-08-22T08:34:11.682Z,7688
2022-08-22T08:35:14.810Z,7704
2022-08-22T08:36:11.931Z,7604
2022-08-22T08:37:14.898Z,7400
2022-08-22T08:38:11.685Z,7412
2022-08-22T08:39:11.679Z,7520
2022-08-22T08:40:11.910Z,7756
2022-08-22T08:41:11.406Z,7516
2022-08-22T08:42:11.922Z,7176
2022-08-22T08:43:16.999Z,6952
2022-08-22T08:44:11.404Z,6908
2022-08-22T08:45:11.657Z,6868
2022-08-22T08:46:13.465Z,6880
2022-08-22T08:47:11.651Z,6952
2022-08-22T08:48:11.957Z,7116
2022-08-22T08:49:13.461Z,7336
2022-08-22T08:50:14.009Z,7616
2022-08-22T08:51:13.765Z,7768
2022-08-22T08:52:11.648Z,7880
2022-08-22T08:53:12.981Z,8272
2022-08-22T08:54:12.208Z,8696
2022-08-22T08:55:29.182Z,9016
2022-08-22T08:56:21.963Z,9076
2022-08-22T09:40:31.913Z,10612
2022-08-22T09:41:41.500Z,10672
2022-08-22T09:42:47.253Z,10724
2022-08-22T09:43:51.103Z,10672
2022-08-22T09:44:48.333Z,10568
2022-08-22T09:45:45.008Z,10400
2022-08-22T09:46:43.816Z,10272
2022-08-22T09:47:46.240Z,10104
2022-08-22T09:48:44.865Z,9896
2022-08-22T09:49:43.769Z,10100
2022-08-22T09:50:46.121Z,10144
2022-08-22T09:51:41.928Z,10420
2022-08-22T09:52:44.959Z,10356
2022-08-22T09:53:41.248Z,10316
2022-08-22T09:54:43.559Z,10420
2022-08-22T09:55:44.100Z,10444
2022-08-22T09:56:42.963Z,10308
2022-08-22T09:57:41.967Z,9936
2022-08-22T09:58:47.860Z,9564
2022-08-22T09:59:43.068Z,10068
2022-08-22T10:00:42.937Z,10136
2022-08-22T10:01:46.937Z,10144
2022-08-22T10:02:52.761Z,10560
2022-08-22T10:03:43.989Z,10736
2022-08-22T10:04:44.290Z,10976
2022-08-22T10:05:50.165Z,11128
2022-08-22T10:06:42.299Z,11228
2022-08-22T10:07:42.277Z,11240
2022-08-22T10:08:42.233Z,11328
2022-08-22T10:09:41.816Z,11604
2022-08-22T10:10:43.249Z,11900
2022-08-22T10:11:49.043Z,12000
2022-08-22T10:12:50.912Z,12152
2022-08-22T10:13:41.711Z,12192
2022-08-22T10:14:42.511Z,12208
2022-08-22T10:15:42.142Z,12248
2022-08-22T10:16:42.639Z,12036
2022-08-22T10:17:47.951Z,11512
2022-08-22T10:19:00.228Z,12576
2022-08-22T10:19:42.900Z,12820
2022-08-22T10:20:47.051Z,12852
2022-08-22T10:21:42.130Z,13064
2022-08-22T10:22:46.669Z,13228
2022-08-22T10:23:43.037Z,13288
2022-08-22T10:24:50.521Z,13348
2022-08-22T10:25:46.570Z,13480
2022-08-22T10:26:45.959Z,13380
2022-08-22T10:27:41.927Z,13328
2022-08-22T10:28:41.613Z,13260
2022-08-22T10:29:41.228Z,13276
2022-08-22T10:30:43.233Z,13180
2022-08-22T10:32:10.854Z,13232
2022-08-22T10:32:45.033Z,13236
2022-08-22T10:33:46.767Z,13100
2022-08-22T10:34:42.364Z,13200
2022-08-22T10:35:41.686Z,13340
2022-08-22T10:36:42.156Z,13244
2022-08-22T10:37:52.506Z,13268
2022-08-22T10:38:52.602Z,13352
2022-08-22T10:39:46.138Z,13320
2022-08-22T10:40:45.459Z,13124
2022-08-22T10:41:42.634Z,12876
2022-08-22T10:42:43.876Z,12560
2022-08-22T10:43:45.307Z,12100
2022-08-22T10:44:43.488Z,11700
2022-08-22T10:45:43.417Z,11688
2022-08-22T10:46:44.730Z,12140
2022-08-22T10:47:41.567Z,12320
2022-08-22T10:48:42.079Z,12444
2022-08-22T10:49:41.485Z,12528
2022-08-22T10:50:45.128Z,12604
2022-08-22T10:51:44.580Z,12560
2022-08-22T10:52:41.611Z,12504
2022-08-22T10:53:41.819Z,12452
2022-08-22T10:54:42.793Z,12408
2022-08-22T10:55:41.543Z,12376
2022-08-22T10:56:46.102Z,12388
2022-08-22T10:57:42.496Z,12412
2022-08-22T10:58:44.183Z,12360
2022-08-22T10:59:43.552Z,12336
2022-08-22T11:00:52.733Z,12140
2022-08-22T11:01:48.228Z,12132
2022-08-22T11:02:47.039Z,12480
2022-08-22T11:03:44.465Z,12324
2022-08-22T11:04:42.534Z,12592
2022-08-22T11:05:41.509Z,12576
2022-08-22T11:06:41.541Z,12544
2022-08-22T11:07:50.805Z,12448
2022-08-22T11:08:42.939Z,12296
2022-08-22T11:09:43.752Z,12056
2022-08-22T11:10:43.519Z,12164
2022-08-22T11:11:42.854Z,12464
2022-08-22T11:12:46.931Z,12824
2022-08-22T11:13:46.620Z,12104
2022-08-22T11:14:41.526Z,11112
2022-08-22T11:15:42.081Z,11108
2022-08-22T11:16:47.954Z,10952
2022-08-22T11:17:58.489Z,10452
2022-08-22T11:18:43.339Z,10432
2022-08-22T11:19:41.853Z,10456
2022-08-22T11:20:41.720Z,10252
2022-08-22T11:21:41.905Z,9840
2022-08-22T11:22:41.335Z,10332
2022-08-22T11:23:41.710Z,10072
2022-08-22T11:25:06.315Z,9476
2022-08-22T11:25:46.028Z,9516
2022-08-22T11:26:56.609Z,9512
2022-08-22T11:27:46.903Z,9364
2022-08-22T11:28:41.264Z,9324
2022-08-22T11:29:44.293Z,9364
2022-08-22T11:30:55.160Z,9508
2022-08-22T11:31:54.418Z,9776
2022-08-22T11:32:42.098Z,9908
2022-08-22T11:33:54.411Z,10256
2022-08-22T11:34:42.611Z,10060
2022-08-22T11:35:43.165Z,10184
2022-08-22T11:36:42.747Z,10208
2022-08-22T11:37:57.001Z,9880
2022-08-22T11:38:43.228Z,9872
2022-08-22T11:39:42.894Z,10060
2022-08-22T11:40:43.935Z,10188
2022-08-22T11:41:43.832Z,10172
2022-08-22T11:42:54.219Z,10120
2022-08-22T11:43:41.993Z,10060
2022-08-22T11:44:55.605Z,9804
2022-08-22T11:45:44.737Z,9640
2022-08-22T11:46:41.893Z,9560
2022-08-22T11:47:44.444Z,9808
2022-08-22T11:48:41.970Z,10132
2022-08-22T11:49:44.659Z,9972
2022-08-22T11:50:46.659Z,9540
2022-08-22T11:51:41.968Z,9232
2022-08-22T11:52:41.875Z,8984
2022-08-22T11:53:41.738Z,9508
2022-08-22T11:54:46.551Z,10304
2022-08-22T11:55:42.182Z,10944
2022-08-22T11:56:47.557Z,11196
2022-08-22T11:57:46.616Z,11168
2022-08-22T11:58:41.636Z,11328
2022-08-22T11:59:50.239Z,11472
2022-08-22T12:00:46.734Z,11420
2022-08-22T12:01:42.928Z,11456
2022-08-22T12:02:43.172Z,11380
2022-08-22T12:03:44.183Z,11288
2022-08-22T12:04:47.053Z,11156
2022-08-22T12:05:41.990Z,11060
2022-08-22T12:06:45.043Z,10888
2022-08-22T12:07:42.503Z,11208
2022-08-22T12:08:42.530Z,11260
2022-08-22T12:09:42.512Z,11632
2022-08-22T12:10:43.626Z,11692
2022-08-22T12:11:41.519Z,11180
2022-08-22T12:12:44.545Z,11020
2022-08-22T12:13:42.925Z,11004
2022-08-22T12:14:45.226Z,10896
2022-08-22T12:15:45.365Z,10744
2022-08-22T12:16:41.736Z,10104
2022-08-22T12:18:07.121Z,10116
2022-08-22T12:18:42.804Z,10144
2022-08-22T12:20:18.597Z,10264
2022-08-22T12:20:47.570Z,10368
2022-08-22T12:21:45.797Z,10160
2022-08-22T12:22:51.067Z,9848
2022-08-22T12:23:56.848Z,9876
2022-08-22T12:24:43.940Z,10068
2022-08-22T12:25:51.822Z,10336
2022-08-22T12:26:46.482Z,10412
2022-08-22T12:27:54.117Z,10256
2022-08-22T12:28:41.759Z,10364
2022-08-22T12:29:52.444Z,10448
2022-08-22T12:30:42.343Z,10148
2022-08-22T12:31:42.879Z,9788
2022-08-22T12:32:46.383Z,9884
2022-08-22T12:33:42.117Z,10248
2022-08-22T12:34:46.147Z,10060
2022-08-22T12:35:41.982Z,9396
2022-08-22T12:36:41.593Z,9064
2022-08-22T12:37:58.999Z,9112
2022-08-22T12:38:46.741Z,9444
2022-08-22T12:39:45.862Z,9892
2022-08-22T12:40:49.365Z,10308
2022-08-22T12:41:48.988Z,10656
2022-08-22T12:42:48.560Z,11180
2022-08-22T12:43:51.897Z,11760
2022-08-22T12:44:41.802Z,12124
2022-08-22T12:45:44.839Z,12436
2022-08-22T12:46:51.378Z,12636
2022-08-22T12:47:47.166Z,12764
2022-08-22T12:48:42.281Z,12860
2022-08-22T12:49:49.901Z,12968
2022-08-22T12:50:42.307Z,13056
2022-08-22T12:51:44.455Z,13152
2022-08-22T12:52:41.614Z,13108
2022-08-22T12:53:44.787Z,12960
2022-08-22T12:54:41.697Z,12896
2022-08-22T12:55:42.713Z,12676
2022-08-22T12:56:49.839Z,12412
2022-08-22T12:57:42.294Z,12104
2022-08-22T12:58:43.193Z,11656
2022-08-22T12:59:41.440Z,11396
2022-08-22T13:00:44.110Z,11284
2022-08-22T13:01:47.808Z,11188
2022-08-22T13:02:41.698Z,11140
2022-08-22T13:03:41.178Z,11180
2022-08-22T13:04:42.576Z,11296
2022-08-22T13:05:59.965Z,11368
2022-08-22T13:06:43.886Z,11384
2022-08-22T13:07:41.664Z,11408
2022-08-22T13:08:42.655Z,11416
2022-08-22T13:09:43.265Z,11384
2022-08-22T13:10:43.243Z,11356
2022-08-22T13:11:41.685Z,11280
2022-08-22T13:12:46.953Z,11196
2022-08-22T13:13:58.475Z,11164
2022-08-22T13:14:45.161Z,11120
2022-08-22T13:15:46.463Z,11064
2022-08-22T13:16:52.983Z,11008
2022-08-22T13:17:44.143Z,10972
2022-08-22T13:18:47.191Z,10960
2022-08-22T13:19:41.927Z,10956
2022-08-22T13:20:45.756Z,10948
2022-08-22T13:21:43.588Z,10956
2022-08-22T13:22:47.707Z,10904
2022-08-22T13:23:50.767Z,10896
2022-08-22T13:24:56.832Z,10836
2022-08-22T13:25:41.678Z,10768
2022-08-22T13:26:51.529Z,10732
2022-08-22T13:27:52.907Z,10616
2022-08-22T13:28:42.136Z,10536
2022-08-22T13:29:49.464Z,10432
2022-08-22T13:30:45.838Z,10356
2022-08-22T13:31:41.403Z,10316
2022-08-22T13:32:46.886Z,10252
2022-08-22T13:33:41.918Z,10180
2022-08-22T13:34:48.828Z,10100
2022-08-22T13:35:54.340Z,9848
2022-08-22T13:36:41.691Z,9716
2022-08-22T13:37:41.974Z,9628
2022-08-22T13:38:52.162Z,9396
2022-08-22T13:39:41.860Z,9224
2022-08-22T13:40:44.425Z,9144
2022-08-22T13:41:50.254Z,9208
2022-08-22T13:42:50.178Z,9404
2022-08-22T13:43:42.225Z,9556
2022-08-22T13:44:44.950Z,9660
2022-08-22T13:45:41.135Z,9676
2022-08-22T13:47:15.990Z,9736
2022-08-22T13:47:45.512Z,9828
2022-08-22T13:48:41.377Z,9984
2022-08-22T13:49:41.656Z,10012
2022-08-22T13:51:01.471Z,9964
2022-08-22T13:51:43.322Z,9940
2022-08-22T13:52:55.166Z,9840
2022-08-22T13:53:45.269Z,9760
2022-08-22T13:54:47.347Z,9632
2022-08-22T13:55:45.524Z,9492
2022-08-22T13:56:50.471Z,9248
2022-08-22T13:57:43.233Z,8988
2022-08-22T13:58:43.070Z,8720
2022-08-22T14:00:09.147Z,8484
2022-08-22T14:01:00.124Z,8408
2022-08-22T14:01:42.002Z,8360
2022-08-22T14:02:45.429Z,8280
2022-08-22T14:03:43.560Z,8188
2022-08-22T14:04:45.193Z,8108
2022-08-22T14:05:41.095Z,8116
2022-08-22T14:06:48.509Z,8196
2022-08-22T14:07:42.069Z,8180
2022-08-22T14:08:47.981Z,8116
2022-08-22T14:09:41.859Z,7988
2022-08-22T14:10:41.774Z,7732
2022-08-22T14:11:41.602Z,7408
2022-08-22T14:12:57.687Z,7040
2022-08-22T14:13:44.183Z,6908
2022-08-22T14:14:41.599Z,6788
2022-08-22T14:15:55.833Z,6848
2022-08-22T14:16:42.156Z,6936
2022-08-22T14:17:53.176Z,6980
2022-08-22T14:18:50.781Z,7012
2022-08-22T14:20:04.105Z,7084
2022-08-22T14:20:42.869Z,7124
2022-08-22T14:21:47.979Z,7208
2022-08-22T14:22:42.434Z,7284
2022-08-22T14:23:41.828Z,7360
2022-08-22T14:25:01.338Z,7436
2022-08-22T14:25:44.912Z,7476
2022-08-22T14:26:54.465Z,7512
2022-08-22T14:27:45.455Z,7520
2022-08-22T14:28:42.626Z,7508
2022-08-22T14:29:45.457Z,7468
2022-08-22T14:30:41.559Z,7412
2022-08-22T14:31:41.559Z,7336
2022-08-22T14:32:46.330Z,7240
2022-08-22T14:33:47.662Z,7212
2022-08-22T14:34:42.145Z,7204
2022-08-22T14:35:44.843Z,7144
2022-08-22T14:36:45.142Z,7080
2022-08-22T14:37:45.321Z,6972
2022-08-22T14:38:48.608Z,6844
2022-08-22T14:39:49.017Z,6720
2022-08-22T14:40:42.269Z,6572
2022-08-22T14:42:14.325Z,6284
2022-08-22T14:42:48.711Z,6192
2022-08-22T14:43:46.995Z,6032
2022-08-22T14:44:42.576Z,5872
2022-08-22T14:45:44.869Z,5708
2022-08-22T14:46:42.270Z,5564
2022-08-22T14:48:41.652Z,5320
2022-08-22T14:48:52.249Z,5304
2022-08-22T14:49:54.678Z,5208
2022-08-22T14:50:55.184Z,5124
2022-08-22T14:51:55.686Z,5040
2022-08-22T14:52:51.525Z,4972
2022-08-22T14:53:51.791Z,4900
2022-08-22T14:54:55.444Z,4836
2022-08-22T14:55:58.255Z,4792
2022-08-22T14:56:51.781Z,4756
2022-08-22T14:57:52.676Z,4700
2022-08-22T14:58:52.750Z,4656
2022-08-22T14:59:54.950Z,4608
2022-08-22T15:00:54.568Z,4544
2022-08-22T15:01:57.813Z,4488
2022-08-22T15:02:51.491Z,4436
2022-08-22T15:03:52.585Z,4372
2022-08-22T15:04:54.841Z,4316
2022-08-22T15:05:52.255Z,4268
2022-08-22T15:06:55.270Z,4232
2022-08-22T15:07:53.842Z,4200
2022-08-22T15:08:55.208Z,4172
2022-08-22T15:09:52.878Z,4148
2022-08-22T15:10:52.948Z,4136
2022-08-22T15:11:55.845Z,4120
2022-08-22T15:12:53.241Z,4112
2022-08-22T15:13:53.645Z,4096
2022-08-22T15:14:58.887Z,4080
2022-08-22T15:16:11.987Z,4076
2022-08-22T15:16:52.678Z,4076
2022-08-22T15:17:57.921Z,4096
2022-08-22T15:18:58.684Z,4124
2022-08-22T15:19:57.009Z,4136
2022-08-22T15:21:00.317Z,4140
2022-08-22T15:21:52.431Z,4124
2022-08-22T15:22:52.654Z,4100
2022-08-22T15:23:54.464Z,4060
2022-08-22T15:24:58.358Z,4008
2022-08-22T15:25:54.931Z,3956
2022-08-22T15:27:00.003Z,3880
2022-08-22T15:27:55.364Z,3812
2022-08-22T15:28:59.976Z,3748
2022-08-22T15:29:53.273Z,3708
2022-08-22T15:30:58.542Z,3696
2022-08-22T15:31:53.859Z,3708
2022-08-22T15:32:53.476Z,3736
2022-08-22T15:33:53.683Z,3784
2022-08-22T15:34:56.856Z,3836
2022-08-22T15:35:54.228Z,3880
2022-08-22T15:36:54.732Z,3928
2022-08-22T15:37:55.613Z,3960
2022-08-22T15:38:54.910Z,3968
2022-08-22T15:39:53.668Z,3956
2022-08-22T15:40:52.922Z,3932
2022-08-22T15:41:53.072Z,3900
2022-08-22T15:42:52.483Z,3852
2022-08-22T15:43:52.904Z,3796
2022-08-22T15:44:53.215Z,3728
2022-08-22T15:45:53.586Z,3664
2022-08-22T15:46:53.621Z,3600
2022-08-22T15:47:54.494Z,3528
2022-08-22T15:49:01.718Z,3460
2022-08-22T15:49:58.682Z,3408
2022-08-22T15:50:55.986Z,3368
2022-08-22T15:51:54.662Z,3332
2022-08-22T15:53:12.107Z,3308
2022-08-22T15:53:58.163Z,3304
2022-08-22T15:54:59.367Z,3312
2022-08-22T15:55:54.029Z,3324
2022-08-22T15:56:53.775Z,3336
2022-08-22T15:57:57.239Z,3356
2022-08-22T15:58:57.321Z,3368
2022-08-22T16:00:00.700Z,3368
2022-08-22T16:00:53.100Z,3360
2022-08-22T16:01:57.733Z,3344
2022-08-22T16:02:54.870Z,3316
2022-08-22T16:03:52.525Z,3268
2022-08-22T16:04:52.246Z,3224
2022-08-22T16:05:58.320Z,3172
2022-08-22T16:06:55.331Z,3128
2022-08-22T16:07:52.499Z,3084
2022-08-22T16:08:52.487Z,3040
2022-08-22T16:09:52.241Z,3008
2022-08-22T16:10:52.493Z,2988
2022-08-22T16:11:52.223Z,2972
2022-08-22T16:12:51.965Z,2956
2022-08-22T16:13:57.157Z,2936
2022-08-22T16:14:52.466Z,2920
2022-08-22T16:15:59.420Z,2908
2022-08-22T16:16:52.462Z,2888
2022-08-22T16:17:57.858Z,2864
2022-08-22T16:18:52.449Z,2852
2022-08-22T16:19:52.185Z,2840
2022-08-22T16:20:52.445Z,2844
2022-08-22T16:21:52.445Z,2884
2022-08-22T16:22:54.325Z,2940
2022-08-22T16:23:54.254Z,3016
2022-08-22T16:24:55.501Z,3108
2022-08-22T16:25:52.163Z,3204
2022-08-22T16:26:52.422Z,3324
2022-08-22T16:27:52.167Z,3436
2022-08-22T16:29:05.071Z,3540
2022-08-22T16:29:52.412Z,3588
2022-08-22T16:30:57.109Z,3616
2022-08-22T16:31:52.393Z,3596
2022-08-22T16:32:52.412Z,3540
2022-08-22T16:33:52.141Z,3480
2022-08-22T16:34:52.129Z,3416
2022-08-22T16:35:52.643Z,3392
2022-08-22T16:36:52.370Z,3400
2022-08-22T16:37:52.371Z,3448
2022-08-22T16:38:52.118Z,3484
2022-08-22T16:39:52.630Z,3476
2022-08-22T16:40:51.851Z,3428
2022-08-22T16:41:52.609Z,3328
2022-08-22T16:42:52.113Z,3224
2022-08-22T16:44:01.424Z,3156
2022-08-22T16:44:52.640Z,3124
2022-08-22T16:45:52.094Z,3084
2022-08-22T16:46:52.342Z,3028
2022-08-22T16:48:03.370Z,2944
2022-08-22T16:48:52.068Z,2884
2022-08-22T16:49:52.076Z,2832
2022-08-22T16:50:57.580Z,2796
2022-08-22T16:51:52.060Z,2764
2022-08-22T16:52:52.310Z,2732
2022-08-22T16:53:53.069Z,2696
2022-08-22T16:54:52.301Z,2656
2022-08-22T16:55:52.303Z,2624
2022-08-22T16:56:52.050Z,2600
2022-08-22T16:58:12.916Z,2572
2022-08-22T16:59:26.153Z,2516
2022-08-22T16:59:52.552Z,2492
2022-08-22T17:01:00.079Z,2408
2022-08-22T17:01:52.336Z,2344
2022-08-22T17:02:52.285Z,2276
2022-08-22T17:03:52.022Z,2212
2022-08-22T17:04:52.008Z,2164
2022-08-22T17:05:52.270Z,2120
2022-08-22T17:06:51.780Z,2068
2022-08-22T17:07:52.261Z,2004
2022-08-22T17:08:52.519Z,1944
2022-08-22T17:09:52.245Z,1884
2022-08-22T17:10:51.990Z,1824
2022-08-22T17:11:52.254Z,1760
2022-08-22T17:12:52.235Z,1704
2022-08-22T17:13:52.239Z,1660
2022-08-22T17:14:51.969Z,1620
2022-08-22T17:15:52.222Z,1592
2022-08-22T17:16:57.905Z,1568
2022-08-22T17:17:52.219Z,1556
2022-08-22T17:18:52.203Z,1528
2022-08-22T17:19:53.399Z,1492
2022-08-22T17:20:51.690Z,1440
2022-08-22T17:22:00.538Z,1380
2022-08-22T17:22:51.948Z,1340
2022-08-22T17:23:52.188Z,1296
2022-08-22T17:24:52.178Z,1252
2022-08-22T17:25:52.206Z,1220
2022-08-22T17:26:56.374Z,1176
2022-08-22T17:27:51.660Z,1136
2022-08-22T17:28:52.178Z,1088
2022-08-22T17:29:52.161Z,1040
2022-08-22T17:30:52.150Z,984
2022-08-22T17:31:52.153Z,940
2022-08-22T17:33:03.813Z,892
2022-08-22T17:33:58.084Z,856
2022-08-22T17:34:52.137Z,828
2022-08-22T17:35:52.138Z,800
2022-08-22T17:36:52.142Z,780
2022-08-22T17:37:51.873Z,768
2022-08-22T17:38:52.109Z,764
2022-08-22T17:39:58.336Z,760
2022-08-22T17:40:52.118Z,756
2022-08-22T17:41:52.115Z,748
2022-08-22T17:42:51.846Z,732
2022-08-22T17:43:56.626Z,708
2022-08-22T17:44:51.837Z,680
2022-08-22T17:45:52.345Z,660
2022-08-22T17:46:51.573Z,636
2022-08-22T17:47:51.823Z,612